Meath Environmental Platform

Observations

Time Sensor AQI SAQ Temp °C Hum % Pres Pa CO μg/m³ H₂S μg/m³ NO μg/m³ NO₂ μg/m³ O₃ μg/m³ SO₂ μg/m³ CO₂e PPM VOC PPM PM1 μg/m³ PM2.5 μg/m³ PM4 μg/m³ PM10 μg/m³ TPS µm
Tuesday 11 August 2026
20:24 Trim Patrick St 3 27.8 36 69,201 0 30.03 0.75 42.36 56.42 17.78 4.57 10.5 11.55
20:24 Trim Market St 3 27.3 36 66,025 0 10.22 0.87 33.58 58.38 0 2.14 5.21 5.73
20:23 Trim Patrick St 3 27.9 35 69,201 0 29.68 0.75 38.08 52.08 17.36 4.57 11.31 12.44
20:23 Trim Market St 3 27.3 36 66,013 0 10.94 0.86 34.19 58.84 0 3.56 6.29 6.69
20:22 Trim Patrick St 3 27.9 36 69,201 0 36.2 0.74 46.39 52.22 17.57 5.43 11.23 12.35
20:21 Trim Patrick St 3 28 36 69,201 1.01 40.26 0.74 49.41 49.11 19.13 4.57 11.24 12.36
20:20 Trim Patrick St 3 28 36 69,197 0 31.07 0.74 45.82 48.35 18.06 6.29 12.07 13.28
20:19 Trim Patrick St 3 28.1 36 69,222 0 31.17 0.74 44.89 51.46 18.26 4.57 10.47 11.51
20:18 Trim Patrick St 3 28.1 36 69,226 0 30.1 0.74 44.27 51.79 18.2 4.57 11.28 12.4
20:17 Trim Patrick St 3 28.2 35 69,232 0 29.62 0.73 41.79 55.65 18.26 4.57 11.36 12.5
20:16 Trim Patrick St 3 28.2 35 69,238 0 31.11 0.72 42.95 50.79 18.74 4.57 10.53 11.58
20:15 Trim Patrick St 3 28.2 35 69,250 0 33.01 0.72 44.32 51.75 18.98 3.71 9.72 10.7
20:14 Trim Market St 3 27.6 34 66,025 0 7.45 0.82 31.57 56.51 0 2.14 6.35 6.69
20:14 Trim Patrick St 3 28.3 35 69,260 0 32.61 0.71 47.43 49.56 18.99 3.71 10.53 11.59
20:13 Trim Market St 3 27.6 34 66,035 0 7.85 0.83 40.43 51.73 0 2.14 5.82 6.69
20:13 Trim Patrick St 3 28.3 35 69,244 0 32.95 0.71 47.78 50.65 18.56 5.43 11.33 12.46
20:12 Trim Patrick St 3 28.3 35 69,254 0 34.1 0.72 62.06 42.11 18.58 4.57 10.55 11.61
20:11 Trim Market St 3 27.6 34 66,037 0 6.68 0.83 40.16 50.19 0 2.14 4.75 5.23
20:11 Trim Patrick St 3 28.4 34 69,267 0 27.04 0.72 44.13 47.83 17.25 5.43 12.19 13.41
20:10 Trim Patrick St 3 28.4 34 69,288 0 31.45 0.71 49.35 49.74 18.76 3.71 10.58 11.64